sensor_id;sensor_type;location;lat;lon;timestamp;P1;durP1;ratioP1;P2;durP2;ratioP2
22152;SDS011;11242;50.536;12.688;2023-08-21T00:01:35;19.88;;;15.90;;
22152;SDS011;11242;50.536;12.688;2023-08-21T00:04:01;18.73;;;14.57;;
22152;SDS011;11242;50.536;12.688;2023-08-21T00:06:27;16.02;;;14.30;;
22152;SDS011;11242;50.536;12.688;2023-08-21T00:08:53;18.92;;;15.30;;
22152;SDS011;11242;50.536;12.688;2023-08-21T00:11:19;18.88;;;15.98;;
22152;SDS011;11242;50.536;12.688;2023-08-21T00:13:45;18.13;;;15.70;;
22152;SDS011;11242;50.536;12.688;2023-08-21T00:16:13;17.40;;;15.52;;
22152;SDS011;11242;50.536;12.688;2023-08-21T00:18:38;16.30;;;14.60;;
22152;SDS011;11242;50.536;12.688;2023-08-21T00:21:04;17.58;;;15.75;;
22152;SDS011;11242;50.536;12.688;2023-08-21T00:23:29;17.20;;;15.40;;
22152;SDS011;11242;50.536;12.688;2023-08-21T00:25:56;19.38;;;14.38;;
22152;SDS011;11242;50.536;12.688;2023-08-21T00:28:22;18.67;;;14.65;;
22152;SDS011;11242;50.536;12.688;2023-08-21T00:30:48;19.60;;;15.25;;
22152;SDS011;11242;50.536;12.688;2023-08-21T00:33:14;20.52;;;16.65;;
22152;SDS011;11242;50.536;12.688;2023-08-21T00:35:39;19.58;;;17.33;;
22152;SDS011;11242;50.536;12.688;2023-08-21T00:38:05;18.77;;;15.57;;
22152;SDS011;11242;50.536;12.688;2023-08-21T00:40:30;19.80;;;16.23;;
22152;SDS011;11242;50.536;12.688;2023-08-21T00:42:56;19.13;;;15.90;;
22152;SDS011;11242;50.536;12.688;2023-08-21T00:45:22;17.70;;;15.90;;
22152;SDS011;11242;50.536;12.688;2023-08-21T00:47:48;20.23;;;17.75;;
22152;SDS011;11242;50.536;12.688;2023-08-21T00:50:13;19.70;;;17.27;;
22152;SDS011;11242;50.536;12.688;2023-08-21T00:52:40;18.40;;;15.93;;
22152;SDS011;11242;50.536;12.688;2023-08-21T00:55:10;20.98;;;18.63;;
22152;SDS011;11242;50.536;12.688;2023-08-21T00:57:36;19.20;;;16.45;;
22152;SDS011;11242;50.536;12.688;2023-08-21T01:00:05;17.77;;;15.90;;
22152;SDS011;11242;50.536;12.688;2023-08-21T01:02:34;19.90;;;16.40;;
22152;SDS011;11242;50.536;12.688;2023-08-21T01:04:59;19.67;;;15.98;;
22152;SDS011;11242;50.536;12.688;2023-08-21T01:07:25;17.95;;;16.05;;
22152;SDS011;11242;50.536;12.688;2023-08-21T01:10:06;17.23;;;15.50;;
22152;SDS011;11242;50.536;12.688;2023-08-21T01:15:15;18.45;;;16.05;;
22152;SDS011;11242;50.536;12.688;2023-08-21T01:17:41;18.80;;;16.90;;
22152;SDS011;11242;50.536;12.688;2023-08-21T01:20:08;18.00;;;16.13;;
22152;SDS011;11242;50.536;12.688;2023-08-21T01:22:38;22.30;;;15.75;;
22152;SDS011;11242;50.536;12.688;2023-08-21T01:25:06;18.70;;;16.65;;
22152;SDS011;11242;50.536;12.688;2023-08-21T01:27:33;19.13;;;17.02;;
22152;SDS011;11242;50.536;12.688;2023-08-21T01:30:00;20.38;;;16.23;;
22152;SDS011;11242;50.536;12.688;2023-08-21T01:32:29;19.10;;;17.10;;
22152;SDS011;11242;50.536;12.688;2023-08-21T01:35:01;19.85;;;17.80;;
22152;SDS011;11242;50.536;12.688;2023-08-21T01:37:29;18.90;;;17.05;;
22152;SDS011;11242;50.536;12.688;2023-08-21T01:39:58;19.58;;;16.38;;
22152;SDS011;11242;50.536;12.688;2023-08-21T01:42:24;17.55;;;15.85;;
22152;SDS011;11242;50.536;12.688;2023-08-21T01:44:50;18.42;;;16.45;;
22152;SDS011;11242;50.536;12.688;2023-08-21T01:47:15;21.55;;;17.17;;
22152;SDS011;11242;50.536;12.688;2023-08-21T01:49:42;19.10;;;15.55;;
22152;SDS011;11242;50.536;12.688;2023-08-21T01:52:07;18.27;;;16.00;;
22152;SDS011;11242;50.536;12.688;2023-08-21T01:54:33;19.27;;;16.80;;
22152;SDS011;11242;50.536;12.688;2023-08-21T01:56:58;17.88;;;16.00;;
22152;SDS011;11242;50.536;12.688;2023-08-21T01:59:24;18.90;;;16.90;;
22152;SDS011;11242;50.536;12.688;2023-08-21T02:01:50;22.35;;;16.60;;
22152;SDS011;11242;50.536;12.688;2023-08-21T02:04:16;17.92;;;15.77;;
22152;SDS011;11242;50.536;12.688;2023-08-21T02:06:41;19.65;;;15.73;;
22152;SDS011;11242;50.536;12.688;2023-08-21T02:09:09;17.08;;;15.55;;
22152;SDS011;11242;50.536;12.688;2023-08-21T02:11:35;18.40;;;16.40;;
22152;SDS011;11242;50.536;12.688;2023-08-21T02:14:01;17.65;;;15.85;;
22152;SDS011;11242;50.536;12.688;2023-08-21T02:16:26;19.13;;;15.95;;
22152;SDS011;11242;50.536;12.688;2023-08-21T02:18:52;19.92;;;15.90;;
22152;SDS011;11242;50.536;12.688;2023-08-21T02:21:19;19.67;;;16.27;;
22152;SDS011;11242;50.536;12.688;2023-08-21T02:23:45;22.98;;;17.55;;
22152;SDS011;11242;50.536;12.688;2023-08-21T02:26:11;20.02;;;18.02;;
22152;SDS011;11242;50.536;12.688;2023-08-21T02:28:38;19.50;;;17.38;;
22152;SDS011;11242;50.536;12.688;2023-08-21T02:31:04;19.02;;;17.02;;
22152;SDS011;11242;50.536;12.688;2023-08-21T02:33:33;22.15;;;18.02;;
22152;SDS011;11242;50.536;12.688;2023-08-21T02:35:58;19.70;;;16.92;;
22152;SDS011;11242;50.536;12.688;2023-08-21T02:38:24;19.27;;;17.02;;
22152;SDS011;11242;50.536;12.688;2023-08-21T02:40:49;19.90;;;17.63;;
22152;SDS011;11242;50.536;12.688;2023-08-21T02:43:15;21.48;;;17.60;;
22152;SDS011;11242;50.536;12.688;2023-08-21T02:45:41;19.83;;;17.20;;
22152;SDS011;11242;50.536;12.688;2023-08-21T02:48:08;19.73;;;17.55;;
22152;SDS011;11242;50.536;12.688;2023-08-21T02:50:33;18.88;;;16.17;;
22152;SDS011;11242;50.536;12.688;2023-08-21T02:53:00;19.50;;;16.50;;
22152;SDS011;11242;50.536;12.688;2023-08-21T02:55:25;19.13;;;17.17;;
22152;SDS011;11242;50.536;12.688;2023-08-21T02:57:51;20.30;;;17.30;;
22152;SDS011;11242;50.536;12.688;2023-08-21T03:00:16;18.85;;;16.98;;
22152;SDS011;11242;50.536;12.688;2023-08-21T03:02:42;19.30;;;17.45;;
22152;SDS011;11242;50.536;12.688;2023-08-21T03:05:09;21.08;;;17.00;;
22152;SDS011;11242;50.536;12.688;2023-08-21T03:07:35;21.45;;;15.93;;
22152;SDS011;11242;50.536;12.688;2023-08-21T03:10:00;19.88;;;16.45;;
22152;SDS011;11242;50.536;12.688;2023-08-21T03:12:27;19.85;;;17.00;;
22152;SDS011;11242;50.536;12.688;2023-08-21T03:14:53;19.75;;;17.42;;
22152;SDS011;11242;50.536;12.688;2023-08-21T03:17:18;20.48;;;16.48;;
22152;SDS011;11242;50.536;12.688;2023-08-21T03:19:44;17.65;;;15.82;;
22152;SDS011;11242;50.536;12.688;2023-08-21T03:22:10;18.73;;;16.77;;
22152;SDS011;11242;50.536;12.688;2023-08-21T03:24:36;19.33;;;17.30;;
22152;SDS011;11242;50.536;12.688;2023-08-21T03:27:02;17.88;;;16.08;;
22152;SDS011;11242;50.536;12.688;2023-08-21T03:29:28;19.65;;;17.35;;
22152;SDS011;11242;50.536;12.688;2023-08-21T03:31:54;19.55;;;17.42;;
22152;SDS011;11242;50.536;12.688;2023-08-21T03:34:20;19.30;;;16.95;;
22152;SDS011;11242;50.536;12.688;2023-08-21T03:36:46;18.67;;;16.58;;
22152;SDS011;11242;50.536;12.688;2023-08-21T03:39:12;19.13;;;17.08;;
22152;SDS011;11242;50.536;12.688;2023-08-21T03:41:42;18.45;;;16.50;;
22152;SDS011;11242;50.536;12.688;2023-08-21T03:44:08;19.75;;;17.00;;
22152;SDS011;11242;50.536;12.688;2023-08-21T03:46:34;19.23;;;17.23;;
22152;SDS011;11242;50.536;12.688;2023-08-21T03:48:59;20.23;;;17.38;;
22152;SDS011;11242;50.536;12.688;2023-08-21T03:51:25;20.30;;;16.55;;
22152;SDS011;11242;50.536;12.688;2023-08-21T03:53:50;18.98;;;16.48;;
22152;SDS011;11242;50.536;12.688;2023-08-21T03:56:16;19.00;;;17.02;;
22152;SDS011;11242;50.536;12.688;2023-08-21T03:58:41;23.75;;;17.55;;
22152;SDS011;11242;50.536;12.688;2023-08-21T04:01:07;17.75;;;16.05;;
22152;SDS011;11242;50.536;12.688;2023-08-21T04:03:33;17.40;;;15.70;;
22152;SDS011;11242;50.536;12.688;2023-08-21T04:05:58;21.25;;;17.48;;
22152;SDS011;11242;50.536;12.688;2023-08-21T04:08:24;18.17;;;16.38;;
22152;SDS011;11242;50.536;12.688;2023-08-21T04:10:50;18.90;;;16.95;;
22152;SDS011;11242;50.536;12.688;2023-08-21T04:13:17;20.60;;;17.58;;
22152;SDS011;11242;50.536;12.688;2023-08-21T04:15:46;20.52;;;18.05;;
22152;SDS011;11242;50.536;12.688;2023-08-21T04:18:13;20.35;;;18.08;;
22152;SDS011;11242;50.536;12.688;2023-08-21T04:20:38;21.17;;;17.17;;
22152;SDS011;11242;50.536;12.688;2023-08-21T04:23:06;20.40;;;17.40;;
22152;SDS011;11242;50.536;12.688;2023-08-21T04:25:32;22.60;;;17.42;;
22152;SDS011;11242;50.536;12.688;2023-08-21T04:27:57;23.58;;;18.45;;
22152;SDS011;11242;50.536;12.688;2023-08-21T04:30:23;23.60;;;17.55;;
22152;SDS011;11242;50.536;12.688;2023-08-21T04:32:49;20.05;;;17.95;;
22152;SDS011;11242;50.536;12.688;2023-08-21T04:35:14;19.80;;;17.52;;
22152;SDS011;11242;50.536;12.688;2023-08-21T04:37:46;18.60;;;15.63;;
22152;SDS011;11242;50.536;12.688;2023-08-21T04:40:14;17.27;;;15.45;;
22152;SDS011;11242;50.536;12.688;2023-08-21T04:42:40;18.92;;;16.55;;
22152;SDS011;11242;50.536;12.688;2023-08-21T04:45:06;22.13;;;16.70;;
22152;SDS011;11242;50.536;12.688;2023-08-21T04:47:34;20.77;;;18.58;;
22152;SDS011;11242;50.536;12.688;2023-08-21T04:50:00;18.98;;;16.73;;
22152;SDS011;11242;50.536;12.688;2023-08-21T04:52:28;18.40;;;16.60;;
22152;SDS011;11242;50.536;12.688;2023-08-21T04:54:53;20.10;;;16.73;;
22152;SDS011;11242;50.536;12.688;2023-08-21T04:57:19;17.52;;;15.82;;
22152;SDS011;11242;50.536;12.688;2023-08-21T04:59:48;18.38;;;16.00;;
22152;SDS011;11242;50.536;12.688;2023-08-21T05:02:14;23.65;;;15.57;;
22152;SDS011;11242;50.536;12.688;2023-08-21T05:04:39;17.08;;;15.38;;
22152;SDS011;11242;50.536;12.688;2023-08-21T05:07:06;17.50;;;15.70;;
22152;SDS011;11242;50.536;12.688;2023-08-21T05:09:32;16.63;;;14.77;;
22152;SDS011;11242;50.536;12.688;2023-08-21T05:11:58;16.88;;;14.98;;
22152;SDS011;11242;50.536;12.688;2023-08-21T05:14:24;19.00;;;14.10;;
22152;SDS011;11242;50.536;12.688;2023-08-21T05:16:50;17.05;;;13.27;;
22152;SDS011;11242;50.536;12.688;2023-08-21T05:19:16;14.65;;;13.13;;
22152;SDS011;11242;50.536;12.688;2023-08-21T05:21:42;12.38;;;11.20;;
22152;SDS011;11242;50.536;12.688;2023-08-21T05:24:09;11.65;;;10.55;;
22152;SDS011;11242;50.536;12.688;2023-08-21T05:26:38;10.65;;;9.52;;
22152;SDS011;11242;50.536;12.688;2023-08-21T05:29:04;9.77;;;8.80;;
22152;SDS011;11242;50.536;12.688;2023-08-21T05:31:30;10.27;;;8.85;;
22152;SDS011;11242;50.536;12.688;2023-08-21T05:33:55;10.15;;;9.15;;
22152;SDS011;11242;50.536;12.688;2023-08-21T05:36:21;9.88;;;8.88;;
22152;SDS011;11242;50.536;12.688;2023-08-21T05:38:47;10.38;;;9.38;;
22152;SDS011;11242;50.536;12.688;2023-08-21T05:41:14;9.75;;;8.63;;
22152;SDS011;11242;50.536;12.688;2023-08-21T05:43:40;9.75;;;8.65;;
22152;SDS011;11242;50.536;12.688;2023-08-21T05:46:08;11.98;;;8.50;;
22152;SDS011;11242;50.536;12.688;2023-08-21T05:48:34;8.85;;;7.95;;
22152;SDS011;11242;50.536;12.688;2023-08-21T05:50:59;9.82;;;8.27;;
22152;SDS011;11242;50.536;12.688;2023-08-21T05:53:25;8.40;;;7.60;;
22152;SDS011;11242;50.536;12.688;2023-08-21T05:55:52;9.07;;;8.27;;
22152;SDS011;11242;50.536;12.688;2023-08-21T05:58:19;9.10;;;8.07;;
22152;SDS011;11242;50.536;12.688;2023-08-21T06:00:46;9.45;;;8.40;;
22152;SDS011;11242;50.536;12.688;2023-08-21T06:03:12;8.32;;;7.32;;
22152;SDS011;11242;50.536;12.688;2023-08-21T06:05:49;8.70;;;7.75;;
22152;SDS011;11242;50.536;12.688;2023-08-21T06:08:15;8.82;;;8.02;;
22152;SDS011;11242;50.536;12.688;2023-08-21T06:10:41;8.82;;;7.30;;
22152;SDS011;11242;50.536;12.688;2023-08-21T06:13:07;7.85;;;7.10;;
22152;SDS011;11242;50.536;12.688;2023-08-21T06:15:33;8.20;;;7.30;;
22152;SDS011;11242;50.536;12.688;2023-08-21T06:17:59;7.82;;;6.97;;
22152;SDS011;11242;50.536;12.688;2023-08-21T06:20:25;8.27;;;7.50;;
22152;SDS011;11242;50.536;12.688;2023-08-21T06:22:51;7.97;;;7.18;;
22152;SDS011;11242;50.536;12.688;2023-08-21T06:25:16;8.85;;;7.45;;
22152;SDS011;11242;50.536;12.688;2023-08-21T06:27:44;7.45;;;6.80;;
22152;SDS011;11242;50.536;12.688;2023-08-21T06:30:10;9.75;;;7.50;;
22152;SDS011;11242;50.536;12.688;2023-08-21T06:32:36;8.05;;;7.38;;
22152;SDS011;11242;50.536;12.688;2023-08-21T06:35:01;8.13;;;7.07;;
22152;SDS011;11242;50.536;12.688;2023-08-21T06:37:27;7.30;;;6.60;;
22152;SDS011;11242;50.536;12.688;2023-08-21T06:39:52;6.85;;;6.35;;
22152;SDS011;11242;50.536;12.688;2023-08-21T06:42:18;7.38;;;6.40;;
22152;SDS011;11242;50.536;12.688;2023-08-21T06:44:48;7.40;;;6.65;;
22152;SDS011;11242;50.536;12.688;2023-08-21T06:47:14;7.70;;;6.72;;
22152;SDS011;11242;50.536;12.688;2023-08-21T06:49:39;7.35;;;6.75;;
22152;SDS011;11242;50.536;12.688;2023-08-21T06:52:05;10.13;;;6.68;;
22152;SDS011;11242;50.536;12.688;2023-08-21T06:54:30;9.32;;;7.43;;
22152;SDS011;11242;50.536;12.688;2023-08-21T06:56:56;7.90;;;7.13;;
22152;SDS011;11242;50.536;12.688;2023-08-21T06:59:22;7.63;;;6.93;;
22152;SDS011;11242;50.536;12.688;2023-08-21T07:01:47;7.68;;;7.00;;
22152;SDS011;11242;50.536;12.688;2023-08-21T07:04:13;7.50;;;6.80;;
22152;SDS011;11242;50.536;12.688;2023-08-21T07:06:39;9.63;;;7.00;;
22152;SDS011;11242;50.536;12.688;2023-08-21T07:09:04;8.93;;;7.32;;
22152;SDS011;11242;50.536;12.688;2023-08-21T07:11:30;7.32;;;6.82;;
22152;SDS011;11242;50.536;12.688;2023-08-21T07:13:55;7.57;;;6.93;;
22152;SDS011;11242;50.536;12.688;2023-08-21T07:16:22;7.47;;;6.75;;
22152;SDS011;11242;50.536;12.688;2023-08-21T07:18:48;7.78;;;7.07;;
22152;SDS011;11242;50.536;12.688;2023-08-21T07:21:13;8.27;;;6.80;;
22152;SDS011;11242;50.536;12.688;2023-08-21T07:23:39;8.95;;;6.78;;
22152;SDS011;11242;50.536;12.688;2023-08-21T07:26:04;7.28;;;6.57;;
22152;SDS011;11242;50.536;12.688;2023-08-21T07:28:32;8.32;;;6.63;;
22152;SDS011;11242;50.536;12.688;2023-08-21T07:30:58;7.80;;;6.53;;
22152;SDS011;11242;50.536;12.688;2023-08-21T07:33:24;7.75;;;6.60;;
22152;SDS011;11242;50.536;12.688;2023-08-21T07:35:57;9.80;;;6.47;;
22152;SDS011;11242;50.536;12.688;2023-08-21T07:38:27;7.05;;;6.35;;
22152;SDS011;11242;50.536;12.688;2023-08-21T07:41:02;7.20;;;6.38;;
22152;SDS011;11242;50.536;12.688;2023-08-21T07:43:33;13.20;;;11.93;;
22152;SDS011;11242;50.536;12.688;2023-08-21T07:46:03;9.15;;;8.25;;
22152;SDS011;11242;50.536;12.688;2023-08-21T07:48:29;7.47;;;6.70;;
22152;SDS011;11242;50.536;12.688;2023-08-21T07:50:55;7.15;;;6.55;;
22152;SDS011;11242;50.536;12.688;2023-08-21T07:53:21;6.35;;;5.85;;
22152;SDS011;11242;50.536;12.688;2023-08-21T07:55:48;6.90;;;6.20;;
22152;SDS011;11242;50.536;12.688;2023-08-21T07:58:13;7.30;;;6.43;;
22152;SDS011;11242;50.536;12.688;2023-08-21T08:00:40;9.30;;;5.90;;
22152;SDS011;11242;50.536;12.688;2023-08-21T08:03:07;7.45;;;6.75;;
22152;SDS011;11242;50.536;12.688;2023-08-21T08:05:33;6.90;;;6.40;;
22152;SDS011;11242;50.536;12.688;2023-08-21T08:07:59;7.75;;;7.00;;
22152;SDS011;11242;50.536;12.688;2023-08-21T08:10:24;8.00;;;7.20;;
22152;SDS011;11242;50.536;12.688;2023-08-21T08:12:50;8.52;;;7.22;;
22152;SDS011;11242;50.536;12.688;2023-08-21T08:15:17;8.40;;;7.60;;
22152;SDS011;11242;50.536;12.688;2023-08-21T08:17:43;10.88;;;8.88;;
22152;SDS011;11242;50.536;12.688;2023-08-21T08:20:11;8.70;;;8.00;;
22152;SDS011;11242;50.536;12.688;2023-08-21T08:22:37;10.05;;;9.05;;
22152;SDS011;11242;50.536;12.688;2023-08-21T08:25:03;11.05;;;8.30;;
22152;SDS011;11242;50.536;12.688;2023-08-21T08:27:31;9.57;;;8.77;;
22152;SDS011;11242;50.536;12.688;2023-08-21T08:29:57;9.48;;;8.57;;
22152;SDS011;11242;50.536;12.688;2023-08-21T08:32:23;9.35;;;8.43;;
22152;SDS011;11242;50.536;12.688;2023-08-21T08:34:48;9.80;;;8.82;;
22152;SDS011;11242;50.536;12.688;2023-08-21T08:37:14;8.90;;;8.20;;
22152;SDS011;11242;50.536;12.688;2023-08-21T08:39:39;8.88;;;8.07;;
22152;SDS011;11242;50.536;12.688;2023-08-21T08:42:05;10.65;;;8.13;;
22152;SDS011;11242;50.536;12.688;2023-08-21T08:44:34;9.23;;;8.35;;
22152;SDS011;11242;50.536;12.688;2023-08-21T08:47:02;11.95;;;8.90;;
22152;SDS011;11242;50.536;12.688;2023-08-21T08:49:28;9.13;;;8.30;;
22152;SDS011;11242;50.536;12.688;2023-08-21T08:51:55;11.40;;;9.40;;
22152;SDS011;11242;50.536;12.688;2023-08-21T08:54:22;10.57;;;9.57;;
22152;SDS011;11242;50.536;12.688;2023-08-21T08:56:52;11.15;;;10.05;;
22152;SDS011;11242;50.536;12.688;2023-08-21T08:59:18;11.15;;;10.15;;
22152;SDS011;11242;50.536;12.688;2023-08-21T09:01:45;10.13;;;9.18;;
22152;SDS011;11242;50.536;12.688;2023-08-21T09:04:11;10.63;;;9.45;;
22152;SDS011;11242;50.536;12.688;2023-08-21T09:06:37;10.18;;;9.05;;
22152;SDS011;11242;50.536;12.688;2023-08-21T09:09:03;11.00;;;9.63;;
22152;SDS011;11242;50.536;12.688;2023-08-21T09:11:29;10.95;;;9.63;;
22152;SDS011;11242;50.536;12.688;2023-08-21T09:13:55;11.60;;;10.50;;
22152;SDS011;11242;50.536;12.688;2023-08-21T09:16:21;11.02;;;9.95;;
22152;SDS011;11242;50.536;12.688;2023-08-21T09:21:22;11.18;;;10.15;;
22152;SDS011;11242;50.536;12.688;2023-08-21T09:23:56;11.73;;;10.68;;
22152;SDS011;11242;50.536;12.688;2023-08-21T09:26:24;12.18;;;11.02;;
22152;SDS011;11242;50.536;12.688;2023-08-21T09:28:50;11.30;;;10.18;;
22152;SDS011;11242;50.536;12.688;2023-08-21T09:31:29;12.40;;;11.20;;
22152;SDS011;11242;50.536;12.688;2023-08-21T09:33:56;12.32;;;11.32;;
22152;SDS011;11242;50.536;12.688;2023-08-21T09:36:22;13.50;;;11.70;;
22152;SDS011;11242;50.536;12.688;2023-08-21T09:38:50;12.85;;;11.68;;
22152;SDS011;11242;50.536;12.688;2023-08-21T09:41:19;12.40;;;11.38;;
22152;SDS011;11242;50.536;12.688;2023-08-21T09:43:45;13.27;;;12.07;;
22152;SDS011;11242;50.536;12.688;2023-08-21T09:46:17;13.20;;;11.98;;
22152;SDS011;11242;50.536;12.688;2023-08-21T09:48:49;13.65;;;12.20;;
22152;SDS011;11242;50.536;12.688;2023-08-21T09:51:17;13.63;;;12.43;;
22152;SDS011;11242;50.536;12.688;2023-08-21T09:53:43;14.70;;;13.30;;
22152;SDS011;11242;50.536;12.688;2023-08-21T09:56:09;14.77;;;13.38;;
22152;SDS011;11242;50.536;12.688;2023-08-21T09:58:35;17.10;;;12.50;;
22152;SDS011;11242;50.536;12.688;2023-08-21T10:01:02;14.70;;;12.48;;
22152;SDS011;11242;50.536;12.688;2023-08-21T10:03:36;13.50;;;12.27;;
22152;SDS011;11242;50.536;12.688;2023-08-21T10:06:04;13.18;;;11.95;;
22152;SDS011;11242;50.536;12.688;2023-08-21T10:08:31;13.90;;;12.40;;
22152;SDS011;11242;50.536;12.688;2023-08-21T10:11:01;13.07;;;11.88;;
22152;SDS011;11242;50.536;12.688;2023-08-21T10:13:30;13.05;;;11.73;;
22152;SDS011;11242;50.536;12.688;2023-08-21T10:15:57;13.95;;;12.57;;
22152;SDS011;11242;50.536;12.688;2023-08-21T10:18:24;12.27;;;11.18;;
22152;SDS011;11242;50.536;12.688;2023-08-21T10:20:54;11.88;;;10.75;;
22152;SDS011;11242;50.536;12.688;2023-08-21T10:23:29;12.70;;;11.43;;
22152;SDS011;11242;50.536;12.688;2023-08-21T10:25:56;15.27;;;12.15;;
22152;SDS011;11242;50.536;12.688;2023-08-21T10:34:07;11.80;;;10.35;;
22152;SDS011;11242;50.536;12.688;2023-08-21T10:39:02;13.75;;;12.18;;
22152;SDS011;11242;50.536;12.688;2023-08-21T10:41:29;13.18;;;10.90;;
22152;SDS011;11242;50.536;12.688;2023-08-21T10:43:55;12.45;;;10.55;;
22152;SDS011;11242;50.536;12.688;2023-08-21T10:46:20;11.77;;;10.57;;
22152;SDS011;11242;50.536;12.688;2023-08-21T10:48:46;10.90;;;10.00;;
22152;SDS011;11242;50.536;12.688;2023-08-21T10:51:11;11.32;;;9.88;;
22152;SDS011;11242;50.536;12.688;2023-08-21T10:53:38;9.27;;;8.38;;
22152;SDS011;11242;50.536;12.688;2023-08-21T10:56:06;10.30;;;9.23;;
22152;SDS011;11242;50.536;12.688;2023-08-21T10:58:38;12.43;;;8.63;;
22152;SDS011;11242;50.536;12.688;2023-08-21T11:01:06;7.75;;;6.47;;
22152;SDS011;11242;50.536;12.688;2023-08-21T11:03:31;9.05;;;8.10;;
22152;SDS011;11242;50.536;12.688;2023-08-21T11:06:01;10.18;;;7.90;;
22152;SDS011;11242;50.536;12.688;2023-08-21T11:08:34;10.52;;;7.35;;
22152;SDS011;11242;50.536;12.688;2023-08-21T11:11:01;7.90;;;6.53;;
22152;SDS011;11242;50.536;12.688;2023-08-21T11:13:28;8.30;;;5.90;;
22152;SDS011;11242;50.536;12.688;2023-08-21T11:16:00;8.38;;;6.78;;
22152;SDS011;11242;50.536;12.688;2023-08-21T11:18:33;7.72;;;6.93;;
22152;SDS011;11242;50.536;12.688;2023-08-21T11:21:03;8.23;;;7.53;;
22152;SDS011;11242;50.536;12.688;2023-08-21T11:23:36;8.25;;;7.43;;
22152;SDS011;11242;50.536;12.688;2023-08-21T11:26:04;6.10;;;5.50;;
22152;SDS011;11242;50.536;12.688;2023-08-21T11:28:31;7.32;;;5.95;;
22152;SDS011;11242;50.536;12.688;2023-08-21T11:30:57;6.93;;;6.03;;
22152;SDS011;11242;50.536;12.688;2023-08-21T11:33:24;9.52;;;6.15;;
22152;SDS011;11242;50.536;12.688;2023-08-21T11:35:51;7.50;;;6.80;;
22152;SDS011;11242;50.536;12.688;2023-08-21T11:38:22;7.15;;;6.45;;
22152;SDS011;11242;50.536;12.688;2023-08-21T11:43:37;8.88;;;6.85;;
22152;SDS011;11242;50.536;12.688;2023-08-21T11:46:04;9.15;;;7.47;;
22152;SDS011;11242;50.536;12.688;2023-08-21T11:48:31;10.75;;;6.82;;
22152;SDS011;11242;50.536;12.688;2023-08-21T11:50:57;8.38;;;7.57;;
22152;SDS011;11242;50.536;12.688;2023-08-21T11:53:36;8.68;;;7.18;;
22152;SDS011;11242;50.536;12.688;2023-08-21T11:56:03;7.90;;;6.40;;
22152;SDS011;11242;50.536;12.688;2023-08-21T11:58:39;9.02;;;6.95;;
22152;SDS011;11242;50.536;12.688;2023-08-21T12:01:05;6.30;;;5.78;;
22152;SDS011;11242;50.536;12.688;2023-08-21T12:03:36;8.88;;;6.72;;
22152;SDS011;11242;50.536;12.688;2023-08-21T12:06:09;9.05;;;6.63;;
22152;SDS011;11242;50.536;12.688;2023-08-21T12:08:37;11.98;;;7.07;;
22152;SDS011;11242;50.536;12.688;2023-08-21T12:11:03;7.28;;;6.22;;
22152;SDS011;11242;50.536;12.688;2023-08-21T12:13:30;7.28;;;6.55;;
22152;SDS011;11242;50.536;12.688;2023-08-21T12:15:56;7.95;;;6.47;;
22152;SDS011;11242;50.536;12.688;2023-08-21T12:18:22;7.13;;;6.38;;
22152;SDS011;11242;50.536;12.688;2023-08-21T12:20:48;7.80;;;6.80;;
22152;SDS011;11242;50.536;12.688;2023-08-21T12:23:14;7.45;;;6.65;;
22152;SDS011;11242;50.536;12.688;2023-08-21T12:25:40;6.93;;;6.32;;
22152;SDS011;11242;50.536;12.688;2023-08-21T12:28:07;8.73;;;7.15;;
22152;SDS011;11242;50.536;12.688;2023-08-21T12:30:39;9.07;;;6.40;;
22152;SDS011;11242;50.536;12.688;2023-08-21T12:33:04;9.60;;;6.00;;
22152;SDS011;11242;50.536;12.688;2023-08-21T12:35:30;8.40;;;6.60;;
22152;SDS011;11242;50.536;12.688;2023-08-21T12:37:56;9.52;;;6.60;;
22152;SDS011;11242;50.536;12.688;2023-08-21T12:40:22;11.82;;;6.75;;
22152;SDS011;11242;50.536;12.688;2023-08-21T12:42:48;8.68;;;6.75;;
22152;SDS011;11242;50.536;12.688;2023-08-21T12:45:14;8.88;;;6.50;;
22152;SDS011;11242;50.536;12.688;2023-08-21T12:47:41;9.55;;;7.00;;
22152;SDS011;11242;50.536;12.688;2023-08-21T12:50:06;6.55;;;5.97;;
22152;SDS011;11242;50.536;12.688;2023-08-21T12:52:32;6.22;;;5.68;;
22152;SDS011;11242;50.536;12.688;2023-08-21T12:54:58;7.63;;;6.78;;
22152;SDS011;11242;50.536;12.688;2023-08-21T12:57:24;7.30;;;6.57;;
22152;SDS011;11242;50.536;12.688;2023-08-21T12:59:51;7.10;;;6.40;;
22152;SDS011;11242;50.536;12.688;2023-08-21T13:02:17;6.75;;;6.15;;
22152;SDS011;11242;50.536;12.688;2023-08-21T13:04:43;8.30;;;6.00;;
22152;SDS011;11242;50.536;12.688;2023-08-21T13:07:09;8.98;;;6.50;;
22152;SDS011;11242;50.536;12.688;2023-08-21T13:09:35;6.03;;;5.47;;
22152;SDS011;11242;50.536;12.688;2023-08-21T13:12:01;9.43;;;5.85;;
22152;SDS011;11242;50.536;12.688;2023-08-21T13:14:26;8.70;;;6.20;;
22152;SDS011;11242;50.536;12.688;2023-08-21T13:16:52;8.63;;;6.05;;
22152;SDS011;11242;50.536;12.688;2023-08-21T13:19:18;6.82;;;5.88;;
22152;SDS011;11242;50.536;12.688;2023-08-21T13:21:44;7.57;;;6.18;;
22152;SDS011;11242;50.536;12.688;2023-08-21T13:24:09;6.93;;;6.32;;
22152;SDS011;11242;50.536;12.688;2023-08-21T13:26:35;8.18;;;5.97;;
22152;SDS011;11242;50.536;12.688;2023-08-21T13:29:01;7.57;;;6.03;;
22152;SDS011;11242;50.536;12.688;2023-08-21T13:31:27;7.85;;;5.57;;
22152;SDS011;11242;50.536;12.688;2023-08-21T13:33:54;9.88;;;5.90;;
22152;SDS011;11242;50.536;12.688;2023-08-21T13:36:19;7.57;;;5.70;;
22152;SDS011;11242;50.536;12.688;2023-08-21T13:38:46;7.25;;;6.03;;
22152;SDS011;11242;50.536;12.688;2023-08-21T13:41:12;6.95;;;5.82;;
22152;SDS011;11242;50.536;12.688;2023-08-21T13:43:38;6.40;;;5.90;;
22152;SDS011;11242;50.536;12.688;2023-08-21T13:46:04;6.35;;;5.75;;
22152;SDS011;11242;50.536;12.688;2023-08-21T13:48:33;6.78;;;5.90;;
22152;SDS011;11242;50.536;12.688;2023-08-21T13:50:58;6.00;;;5.47;;
22152;SDS011;11242;50.536;12.688;2023-08-21T13:53:24;6.32;;;5.72;;
22152;SDS011;11242;50.536;12.688;2023-08-21T13:55:50;7.18;;;5.57;;
22152;SDS011;11242;50.536;12.688;2023-08-21T13:58:16;8.73;;;5.32;;
22152;SDS011;11242;50.536;12.688;2023-08-21T14:00:42;5.80;;;5.30;;
22152;SDS011;11242;50.536;12.688;2023-08-21T14:03:07;5.90;;;5.40;;
22152;SDS011;11242;50.536;12.688;2023-08-21T14:05:33;8.02;;;5.88;;
22152;SDS011;11242;50.536;12.688;2023-08-21T14:07:59;7.03;;;6.28;;
22152;SDS011;11242;50.536;12.688;2023-08-21T14:10:25;7.40;;;5.75;;
22152;SDS011;11242;50.536;12.688;2023-08-21T14:12:51;8.43;;;5.75;;
22152;SDS011;11242;50.536;12.688;2023-08-21T14:15:16;9.00;;;5.82;;
22152;SDS011;11242;50.536;12.688;2023-08-21T14:17:43;7.35;;;6.20;;
22152;SDS011;11242;50.536;12.688;2023-08-21T14:20:09;11.48;;;5.90;;
22152;SDS011;11242;50.536;12.688;2023-08-21T14:22:36;8.70;;;6.18;;
22152;SDS011;11242;50.536;12.688;2023-08-21T14:25:02;9.45;;;6.18;;
22152;SDS011;11242;50.536;12.688;2023-08-21T14:27:30;8.20;;;5.80;;
22152;SDS011;11242;50.536;12.688;2023-08-21T14:29:56;8.73;;;6.85;;
22152;SDS011;11242;50.536;12.688;2023-08-21T14:32:22;7.43;;;6.55;;
22152;SDS011;11242;50.536;12.688;2023-08-21T14:34:47;7.78;;;6.97;;